Time;durP1;ratioP1;P1;durP2;ratioP2;P2;SDS_P1;SDS_P2;PMS_P1;PMS_P2;Temp;Humidity;BMP_temperature;BMP_pressure;BME280_temperature;BME280_humidity;BME280_pressure;Samples;Min_cycle;Max_cycle;Signal;HPM_P1;HPM_P2
2022/12/12 00:01:19;;;;;;;8.68;6.75;;;-5.40;99.90;;;;;;5071649;28;20380;-70
2022/12/12 00:03:45;;;;;;;8.60;6.85;;;-5.50;99.90;;;;;;5071192;28;20384;-70
2022/12/12 00:06:10;;;;;;;10.30;6.93;;;-5.50;99.90;;;;;;5071675;28;20376;-70
2022/12/12 00:08:36;;;;;;;11.43;8.20;;;-5.50;99.90;;;;;;5071374;28;20404;-70
2022/12/12 00:11:03;;;;;;;9.90;7.20;;;-5.50;99.90;;;;;;5053791;28;20943;-70
2022/12/12 00:13:28;;;;;;;8.68;6.53;;;-5.50;99.90;;;;;;5070748;28;20474;-70
2022/12/12 00:15:54;;;;;;;9.13;7.05;;;-5.40;99.90;;;;;;5071596;28;20467;-70
2022/12/12 00:18:19;;;;;;;8.00;6.40;;;-5.30;99.90;;;;;;5071371;28;20400;-70
2022/12/12 00:20:54;;;;;;;10.20;7.10;;;-5.40;99.90;;;;;;5053723;28;20380;-69
2022/12/12 00:23:20;;;;;;;9.00;7.13;;;-5.50;99.90;;;;;;5070606;28;20380;-68
2022/12/12 00:25:57;;;;;;;11.95;7.70;;;-5.50;99.90;;;;;;5071350;28;20463;-69
2022/12/12 00:28:23;;;;;;;11.15;8.10;;;-5.70;99.90;;;;;;5053364;28;20392;-68
2022/12/12 00:30:49;;;;;;;11.55;8.38;;;-5.80;99.90;;;;;;5071492;28;20395;-68
2022/12/12 00:33:15;;;;;;;9.02;7.30;;;-5.70;99.90;;;;;;5070564;28;20383;-69
2022/12/12 00:35:41;;;;;;;10.68;8.30;;;-5.80;99.90;;;;;;5071188;28;20383;-69
2022/12/12 00:38:07;;;;;;;15.27;9.10;;;-5.80;99.90;;;;;;5071251;28;20398;-69
2022/12/12 00:40:32;;;;;;;11.77;7.93;;;-5.80;99.90;;;;;;5071214;28;20379;-68
2022/12/12 00:42:58;;;;;;;10.13;8.00;;;-5.80;99.90;;;;;;5069985;28;20432;-68
2022/12/12 00:45:23;;;;;;;10.67;7.90;;;-5.90;99.90;;;;;;5062814;28;20406;-69
2022/12/12 00:47:49;;;;;;;12.15;8.10;;;-5.80;99.90;;;;;;5070545;28;20390;-69
2022/12/12 00:50:15;;;;;;;15.52;8.50;;;-5.90;99.90;;;;;;5070401;28;20970;-68
2022/12/12 00:52:40;;;;;;;11.07;7.40;;;-5.80;99.90;;;;;;5069700;28;20414;-68
2022/12/12 00:55:06;;;;;;;9.48;7.00;;;-5.80;99.90;;;;;;5070686;28;20433;-68
2022/12/12 00:57:32;;;;;;;12.75;8.40;;;-5.80;99.90;;;;;;5070332;28;20387;-68
2022/12/12 00:59:58;;;;;;;10.95;7.68;;;-5.90;99.90;;;;;;5070660;28;20394;-69
2022/12/12 01:02:23;;;;;;;8.98;6.50;;;-6.00;99.90;;;;;;5070106;28;20383;-68
2022/12/12 01:04:49;;;;;;;9.37;6.77;;;-6.00;99.90;;;;;;5070286;28;20876;-69
2022/12/12 01:07:15;;;;;;;9.43;7.05;;;-6.00;99.90;;;;;;5095422;22;21130;-69
2022/12/12 01:09:40;;;;;;;9.10;6.60;;;-5.90;99.90;;;;;;5090379;28;20392;-69
2022/12/12 01:12:06;;;;;;;8.60;5.43;;;-5.90;99.90;;;;;;5090538;28;20385;-69
2022/12/12 01:14:31;;;;;;;6.67;5.27;;;-6.00;99.90;;;;;;5089709;28;20442;-69
2022/12/12 01:16:57;;;;;;;9.23;5.97;;;-6.10;99.90;;;;;;5090236;28;20378;-69
2022/12/12 01:19:23;;;;;;;7.97;5.65;;;-6.00;99.90;;;;;;5087541;28;20402;-69
2022/12/12 01:21:48;;;;;;;6.45;5.47;;;-6.00;99.90;;;;;;5084400;28;20729;-69
2022/12/12 01:24:14;;;;;;;8.20;5.55;;;-6.00;99.90;;;;;;5089610;28;20913;-69
2022/12/12 01:26:39;;;;;;;6.77;5.20;;;-6.20;99.90;;;;;;5090221;28;20868;-69
2022/12/12 01:29:05;;;;;;;7.33;4.73;;;-6.20;99.90;;;;;;5090047;28;20484;-69
2022/12/12 01:31:30;;;;;;;7.20;4.97;;;-6.10;99.90;;;;;;5090314;28;20404;-69
2022/12/12 01:33:56;;;;;;;7.45;5.00;;;-6.10;99.90;;;;;;5089391;28;20934;-69
2022/12/12 01:36:22;;;;;;;7.20;4.32;;;-6.10;99.90;;;;;;5071932;28;20386;-69
2022/12/12 01:38:50;;;;;;;6.40;5.10;;;-6.20;99.90;;;;;;5089948;28;20472;-69
2022/12/12 01:41:17;;;;;;;5.85;4.60;;;-6.30;99.90;;;;;;5090153;28;20382;-69
2022/12/12 01:43:43;;;;;;;5.20;4.40;;;-6.10;99.90;;;;;;5089368;28;20790;-69
2022/12/12 01:46:35;;;;;;;7.75;5.47;;;-6.10;99.90;;;;;;5090301;28;20382;-69
2022/12/12 01:49:12;;;;;;;5.63;3.75;;;-6.10;99.90;;;;;;5090075;28;20787;-69
2022/12/12 01:51:39;;;;;;;4.90;4.03;;;-6.20;99.90;;;;;;5090174;28;20790;-69
2022/12/12 01:54:09;;;;;;;7.50;4.60;;;-6.30;99.90;;;;;;5089343;28;20405;-69
2022/12/12 01:56:36;;;;;;;5.15;4.00;;;-6.30;99.90;;;;;;5090026;28;20386;-69
2022/12/12 01:59:05;;;;;;;8.55;4.13;;;-6.30;99.90;;;;;;5089584;28;20459;-69
2022/12/12 02:01:31;;;;;;;4.60;4.10;;;-6.30;99.90;;;;;;5090107;28;20413;-69
2022/12/12 02:03:58;;;;;;;4.50;4.10;;;-6.30;99.90;;;;;;5081835;28;20795;-69
2022/12/12 02:06:26;;;;;;;5.80;4.40;;;-6.30;99.90;;;;;;5088853;28;20413;-69
2022/12/12 02:08:54;;;;;;;5.82;4.20;;;-6.50;99.90;;;;;;5089523;28;20744;-69
2022/12/12 02:11:20;;;;;;;5.53;4.20;;;-6.50;99.90;;;;;;5089841;28;20390;-69
2022/12/12 02:13:46;;;;;;;6.47;5.07;;;-6.30;99.90;;;;;;5089520;28;20729;-69
2022/12/12 02:16:46;;;;;;;6.90;4.97;;;-6.40;99.90;;;;;;5093720;28;20717;-69
2022/12/12 02:19:36;;;;;;;4.97;4.10;;;-6.40;99.90;;;;;;5089059;28;20412;-69
2022/12/12 02:22:17;;;;;;;5.65;4.70;;;-6.60;99.90;;;;;;5093507;28;20404;-69
2022/12/12 02:24:51;;;;;;;5.70;4.20;;;-6.60;99.90;;;;;;5092684;28;20457;-69
2022/12/12 02:27:30;;;;;;;6.40;4.47;;;-6.40;99.90;;;;;;5093453;28;20373;-69
2022/12/12 02:30:05;;;;;;;5.10;3.97;;;-6.40;99.90;;;;;;5093367;28;20976;-69
2022/12/12 02:32:43;;;;;;;4.25;3.75;;;-6.40;99.90;;;;;;5092831;28;20476;-69
2022/12/12 02:35:22;;;;;;;6.50;4.22;;;-6.40;99.90;;;;;;5093318;28;20422;-69
2022/12/12 02:38:09;;;;;;;4.57;3.75;;;-6.40;99.90;;;;;;5093157;28;20382;-69
2022/12/12 02:40:54;;;;;;;5.25;4.43;;;-6.50;99.90;;;;;;5093281;28;20735;-69
2022/12/12 02:43:35;;;;;;;4.07;3.67;;;-6.30;99.90;;;;;;5074103;28;20467;-69
2022/12/12 02:46:08;;;;;;;4.35;3.88;;;-6.40;99.90;;;;;;5093177;28;20378;-69
2022/12/12 02:49:15;;;;;;;5.07;4.18;;;-6.30;99.90;;;;;;5092950;28;20826;-69
2022/12/12 02:51:41;;;;;;;5.03;4.00;;;-6.40;99.90;;;;;;4993690;28;20396;-69
2022/12/12 02:54:14;;;;;;;5.57;3.60;;;-6.40;99.90;;;;;;5018376;28;20395;-69
2022/12/12 02:56:49;;;;;;;3.80;3.40;;;-6.30;99.90;;;;;;5053532;28;20837;-69
2022/12/12 02:59:31;;;;;;;4.53;3.60;;;-6.40;99.90;;;;;;5084073;28;20927;-69
2022/12/12 03:02:26;;;;;;;4.72;3.22;;;-6.30;99.90;;;;;;5092879;28;20512;-69
2022/12/12 03:08:06;;;;;;;5.45;4.03;;;-6.70;99.90;;;;;;5092389;28;20830;-69
2022/12/12 03:10:52;;;;;;;4.32;3.80;;;-6.70;99.90;;;;;;5074303;28;20443;-69
2022/12/12 03:13:35;;;;;;;5.18;4.18;;;-6.50;99.90;;;;;;5091926;28;20389;-69
2022/12/12 03:16:19;;;;;;;5.13;3.60;;;-6.50;99.90;;;;;;5092498;28;20455;-69
2022/12/12 03:19:15;;;;;;;8.35;3.70;;;-6.50;99.90;;;;;;5092357;28;20767;-69
2022/12/12 03:22:02;;;;;;;5.40;3.53;;;-6.50;99.90;;;;;;5092505;28;20385;-69
2022/12/12 03:24:33;;;;;;;4.53;3.85;;;-6.50;99.90;;;;;;5091172;28;20413;-69
2022/12/12 03:27:14;;;;;;;6.63;4.57;;;-6.50;99.90;;;;;;5091169;28;20388;-69
2022/12/12 03:29:47;;;;;;;4.78;3.80;;;-6.40;99.90;;;;;;5087132;28;20394;-69
2022/12/12 03:32:18;;;;;;;4.93;4.20;;;-6.40;99.90;;;;;;5089678;28;20389;-69
2022/12/12 03:35:05;;;;;;;5.68;4.40;;;-6.50;99.90;;;;;;5091373;28;20386;-69
2022/12/12 03:37:38;;;;;;;5.32;3.95;;;-6.50;99.90;;;;;;5073906;28;20793;-69
2022/12/12 03:40:17;;;;;;;5.32;4.20;;;-6.50;99.90;;;;;;5092019;28;20493;-69
2022/12/12 03:43:09;;;;;;;6.30;4.20;;;-6.50;99.90;;;;;;5091380;28;20935;-69
2022/12/12 03:45:55;;;;;;;4.68;4.20;;;-6.60;99.90;;;;;;5064837;28;20398;-69
2022/12/12 03:48:33;;;;;;;4.88;4.20;;;-6.60;99.90;;;;;;5091995;28;20395;-69
2022/12/12 03:51:10;;;;;;;4.82;4.32;;;-6.40;99.90;;;;;;5091947;28;20414;-69
2022/12/12 03:53:46;;;;;;;6.32;4.25;;;-6.40;99.90;;;;;;5091031;28;20404;-69
2022/12/12 03:56:12;;;;;;;4.50;4.10;;;-6.40;99.90;;;;;;5091849;28;20725;-69
2022/12/12 03:58:41;;;;;;;6.60;4.22;;;-6.30;99.90;;;;;;5091519;28;20527;-69
2022/12/12 04:01:10;;;;;;;7.03;4.30;;;-6.20;99.90;;;;;;5091562;28;20382;-69
2022/12/12 04:03:42;;;;;;;5.80;4.80;;;-6.20;99.90;;;;;;5090948;28;20802;-69
2022/12/12 04:06:26;;;;;;;5.80;4.20;;;-6.10;99.90;;;;;;5091354;28;20381;-69
2022/12/12 04:15:17;;;;;;;6.57;4.70;;;-5.80;99.90;;;;;;5090872;28;20440;-69
2022/12/12 04:18:12;;;;;;;6.38;4.57;;;-6.00;99.90;;;;;;5091231;28;20414;-69
2022/12/12 04:24:19;;;;;;;6.57;5.18;;;-6.00;99.90;;;;;;5090585;28;20457;-69
2022/12/12 04:26:48;;;;;;;6.13;5.00;;;-6.10;99.90;;;;;;5091314;28;20423;-69
2022/12/12 04:29:23;;;;;;;6.60;4.93;;;-6.00;99.90;;;;;;5091137;28;20379;-69
2022/12/12 04:31:58;;;;;;;6.10;4.85;;;-6.00;99.90;;;;;;5091437;28;20444;-69
2022/12/12 04:34:33;;;;;;;4.45;3.97;;;-5.90;99.90;;;;;;5090568;28;20390;-69
2022/12/12 04:37:00;;;;;;;4.40;4.00;;;-6.00;99.90;;;;;;5090977;28;20382;-69
2022/12/12 04:39:27;;;;;;;5.65;3.63;;;-6.20;99.90;;;;;;5091070;28;20394;-69
2022/12/12 04:41:54;;;;;;;5.47;4.47;;;-6.30;99.90;;;;;;5091324;28;20405;-69
2022/12/12 04:44:21;;;;;;;4.43;3.85;;;-6.20;99.90;;;;;;5090390;28;20469;-69
2022/12/12 04:46:50;;;;;;;6.00;3.70;;;-6.30;99.90;;;;;;5091306;28;20451;-69
2022/12/12 04:49:23;;;;;;;4.82;4.03;;;-6.20;99.90;;;;;;5089777;28;20418;-69
2022/12/12 04:51:54;;;;;;;7.68;4.35;;;-6.10;99.90;;;;;;5074339;28;20395;-69
2022/12/12 04:54:49;;;;;;;6.78;4.20;;;-6.10;99.90;;;;;;5088829;28;20812;-69
2022/12/12 04:57:26;;;;;;;5.07;4.10;;;-6.10;99.90;;;;;;5090876;28;20971;-69
2022/12/12 04:59:52;;;;;;;6.50;4.00;;;-6.10;99.90;;;;;;5084141;28;20403;-69
2022/12/12 05:02:51;;;;;;;6.10;4.40;;;-6.10;99.90;;;;;;5089056;28;20427;-69
2022/12/12 05:05:20;;;;;;;7.68;4.97;;;-6.00;99.90;;;;;;5090880;28;20804;-69
2022/12/12 05:07:54;;;;;;;7.97;5.20;;;-6.00;99.90;;;;;;5090833;28;20461;-69
2022/12/12 05:10:20;;;;;;;6.70;4.70;;;-6.00;99.90;;;;;;5090720;28;20382;-69
2022/12/12 05:12:57;;;;;;;6.27;5.10;;;-6.10;99.90;;;;;;5089955;28;20794;-69
2022/12/12 05:15:23;;;;;;;5.35;4.80;;;-6.00;99.90;;;;;;5090687;28;20447;-69
2022/12/12 05:18:09;;;;;;;7.20;5.00;;;-6.00;99.90;;;;;;5090685;28;20803;-69
2022/12/12 05:20:34;;;;;;;6.07;4.78;;;-6.10;99.90;;;;;;5092172;28;20378;-69
2022/12/12 05:23:00;;;;;;;5.93;4.67;;;-6.30;99.90;;;;;;5090123;28;20378;-69
2022/12/12 05:25:26;;;;;;;5.47;4.47;;;-6.20;99.90;;;;;;5090502;28;20848;-69
2022/12/12 05:27:51;;;;;;;6.60;4.80;;;-6.20;99.90;;;;;;5090563;28;20743;-69
2022/12/12 05:30:17;;;;;;;5.53;4.30;;;-6.20;99.90;;;;;;5082150;28;20379;-69
2022/12/12 05:32:42;;;;;;;5.13;4.20;;;-6.10;99.90;;;;;;5089707;28;20453;-68
2022/12/12 05:35:08;;;;;;;7.37;4.87;;;-6.00;99.90;;;;;;5090873;28;20382;-68
2022/12/12 05:37:34;;;;;;;9.43;6.05;;;-6.10;99.90;;;;;;5090588;28;20496;-68
2022/12/12 05:40:00;;;;;;;9.37;6.83;;;-6.30;99.90;;;;;;5090323;28;20401;-68
2022/12/12 05:42:25;;;;;;;8.80;6.50;;;-6.20;99.90;;;;;;5090057;28;20443;-68
2022/12/12 05:44:51;;;;;;;11.95;7.50;;;-6.20;99.90;;;;;;5090018;28;20860;-68
2022/12/12 05:47:17;;;;;;;11.18;7.20;;;-6.00;99.90;;;;;;5090403;28;20872;-69
2022/12/12 05:49:43;;;;;;;10.98;7.80;;;-6.00;99.90;;;;;;5092611;28;20373;-69
2022/12/12 05:52:09;;;;;;;11.23;7.15;;;-6.00;99.90;;;;;;5094802;28;20378;-69
2022/12/12 05:54:34;;;;;;;10.20;7.70;;;-5.80;99.90;;;;;;5089275;28;20391;-69
2022/12/12 05:57:00;;;;;;;10.13;6.73;;;-5.90;99.90;;;;;;5089962;28;20800;-69
2022/12/12 05:59:26;;;;;;;11.07;7.90;;;-6.10;99.90;;;;;;5094412;28;20757;-69
2022/12/12 06:01:51;;;;;;;13.10;8.00;;;-6.10;99.90;;;;;;5094202;28;20488;-68
2022/12/12 06:04:17;;;;;;;13.52;7.85;;;-6.00;99.90;;;;;;5093582;28;20381;-69
2022/12/12 06:06:42;;;;;;;11.93;7.88;;;-6.20;99.90;;;;;;5094118;28;20385;-69
2022/12/12 06:09:08;;;;;;;13.93;8.40;;;-6.00;99.90;;;;;;5075670;28;20392;-69
2022/12/12 06:11:33;;;;;;;13.47;8.47;;;-6.00;99.90;;;;;;5094227;28;20385;-69
2022/12/12 06:13:59;;;;;;;11.70;7.27;;;-6.00;99.90;;;;;;5093362;28;20377;-69
2022/12/12 06:16:24;;;;;;;14.13;9.00;;;-5.90;99.90;;;;;;5075747;28;20393;-68
2022/12/12 06:18:51;;;;;;;14.93;9.05;;;-6.10;99.90;;;;;;5093845;28;21089;-67
2022/12/12 06:21:17;;;;;;;19.23;9.73;;;-6.00;99.90;;;;;;5093978;28;20452;-67
2022/12/12 06:23:43;;;;;;;15.93;9.90;;;-6.20;99.90;;;;;;5092936;28;20472;-67
2022/12/12 06:26:11;;;;;;;15.90;9.37;;;-6.20;99.90;;;;;;5093750;28;20389;-69
2022/12/12 06:28:37;;;;;;;17.10;10.82;;;-6.10;99.90;;;;;;5094364;28;20446;-69
2022/12/12 06:31:05;;;;;;;16.88;10.57;;;-6.00;99.90;;;;;;5093480;28;20750;-69
2022/12/12 06:33:34;;;;;;;17.98;11.80;;;-6.10;99.90;;;;;;5092991;28;20410;-69
2022/12/12 06:36:06;;;;;;;19.05;10.80;;;-6.20;99.90;;;;;;5075410;28;20760;-69
2022/12/12 06:38:33;;;;;;;19.90;12.33;;;-6.30;99.90;;;;;;5093526;28;20425;-67
2022/12/12 06:40:59;;;;;;;18.52;12.05;;;-6.10;99.90;;;;;;5093493;28;20413;-68
2022/12/12 06:43:25;;;;;;;15.43;11.00;;;-6.10;99.90;;;;;;5092933;28;20410;-67
2022/12/12 06:45:50;;;;;;;20.45;12.32;;;-6.00;99.90;;;;;;5093410;28;20374;-70
2022/12/12 06:48:16;;;;;;;17.75;10.40;;;-5.80;99.90;;;;;;5093402;28;20787;-69
2022/12/12 06:50:43;;;;;;;17.23;11.48;;;-6.00;99.90;;;;;;5093296;28;20390;-70
2022/12/12 06:53:09;;;;;;;14.35;10.32;;;-6.00;99.90;;;;;;5092319;28;20393;-67
2022/12/12 06:55:40;;;;;;;19.25;11.60;;;-6.00;99.90;;;;;;5093256;28;20469;-69
2022/12/12 06:58:06;;;;;;;20.40;10.85;;;-5.90;99.90;;;;;;5093033;28;20398;-66
2022/12/12 07:00:31;;;;;;;18.00;10.27;;;-5.80;99.90;;;;;;5074785;28;20813;-67
2022/12/12 07:02:57;;;;;;;16.50;11.00;;;-5.80;99.90;;;;;;5092352;28;20393;-68
2022/12/12 07:05:23;;;;;;;17.30;10.33;;;-5.70;99.90;;;;;;5092994;28;20382;-69
2022/12/12 07:07:48;;;;;;;15.05;9.82;;;-5.70;99.90;;;;;;5109812;22;20458;-69
2022/12/12 07:10:14;;;;;;;17.60;11.70;;;-5.70;99.90;;;;;;5072689;28;20378;-69
2022/12/12 07:12:39;;;;;;;17.53;11.30;;;-5.70;99.90;;;;;;5071957;28;20469;-69
2022/12/12 07:15:05;;;;;;;19.23;12.40;;;-5.50;99.90;;;;;;5072778;28;20379;-69
2022/12/12 07:17:30;;;;;;;19.17;11.68;;;-5.70;99.90;;;;;;5072601;28;20376;-69
2022/12/12 07:19:56;;;;;;;21.40;11.88;;;-5.90;99.90;;;;;;5072496;28;20400;-69
2022/12/12 07:22:21;;;;;;;15.73;10.97;;;-5.80;99.90;;;;;;5072578;28;20376;-69
2022/12/12 07:24:47;;;;;;;19.90;12.10;;;-5.80;99.90;;;;;;5071790;28;20394;-69
2022/12/12 07:27:13;;;;;;;16.90;11.80;;;-5.70;99.90;;;;;;5072446;28;20441;-69
2022/12/12 07:29:38;;;;;;;17.93;11.50;;;-5.70;99.90;;;;;;5072540;28;20407;-69
2022/12/12 07:32:04;;;;;;;15.48;11.35;;;-5.80;99.90;;;;;;5072293;28;20919;-69
2022/12/12 07:34:29;;;;;;;16.92;11.50;;;-5.80;99.90;;;;;;5071605;28;20380;-68
2022/12/12 07:36:55;;;;;;;14.10;9.98;;;-5.80;99.90;;;;;;5054330;28;20908;-70
2022/12/12 07:39:20;;;;;;;18.37;10.93;;;-5.70;99.90;;;;;;5072146;28;20956;-70
2022/12/12 07:41:46;;;;;;;13.37;9.63;;;-5.70;99.90;;;;;;5072168;28;20414;-70
2022/12/12 07:44:11;;;;;;;17.73;10.00;;;-5.80;99.90;;;;;;5071518;28;20422;-70
2022/12/12 07:46:37;;;;;;;15.03;10.23;;;-5.70;99.90;;;;;;5072071;28;20484;-70
2022/12/12 07:49:02;;;;;;;14.88;9.80;;;-5.60;99.90;;;;;;5071977;28;20943;-69
2022/12/12 07:51:29;;;;;;;14.95;10.00;;;-5.70;99.90;;;;;;5072217;28;20467;-68
2022/12/12 07:53:55;;;;;;;15.05;10.57;;;-5.90;99.90;;;;;;5071277;28;20442;-69
2022/12/12 07:56:21;;;;;;;12.63;9.48;;;-5.90;99.90;;;;;;5071944;28;21142;-69
2022/12/12 07:58:47;;;;;;;15.18;10.55;;;-5.80;99.90;;;;;;5071699;28;20410;-69
2022/12/12 08:01:19;;;;;;;15.65;11.25;;;-5.80;99.90;;;;;;5053831;28;20475;-69
2022/12/12 08:03:46;;;;;;;12.52;9.70;;;-5.90;99.90;;;;;;5070782;28;20891;-69
2022/12/12 08:06:15;;;;;;;14.18;9.82;;;-5.80;99.90;;;;;;5071711;28;20469;-69
2022/12/12 08:08:40;;;;;;;13.37;8.80;;;-5.70;99.90;;;;;;5071227;28;20901;-70
2022/12/12 08:11:08;;;;;;;14.55;8.90;;;-5.80;99.90;;;;;;5071348;28;20384;-69
2022/12/12 08:13:35;;;;;;;11.60;8.00;;;-5.70;99.90;;;;;;5070459;28;21003;-69
2022/12/12 08:16:01;;;;;;;12.45;9.10;;;-5.90;99.90;;;;;;5071910;28;20773;-69
2022/12/12 08:18:27;;;;;;;15.70;8.88;;;-5.90;99.90;;;;;;5071111;28;20862;-69
2022/12/12 08:20:52;;;;;;;16.83;10.18;;;-5.80;99.90;;;;;;5071374;28;20396;-70
2022/12/12 08:23:18;;;;;;;16.27;10.30;;;-5.90;99.90;;;;;;5070433;28;20383;-70
2022/12/12 08:25:44;;;;;;;15.13;10.20;;;-6.00;99.90;;;;;;5071023;28;20393;-70
2022/12/12 08:28:09;;;;;;;17.70;10.52;;;-5.90;99.90;;;;;;5071023;28;20418;-70
2022/12/12 08:30:35;;;;;;;15.80;10.90;;;-5.80;99.90;;;;;;5071047;28;20799;-70
2022/12/12 08:33:00;;;;;;;15.87;10.67;;;-6.00;99.90;;;;;;5070235;28;20884;-70
2022/12/12 08:35:31;;;;;;;18.80;11.27;;;-6.10;99.90;;;;;;5071235;28;20384;-69
2022/12/12 08:37:58;;;;;;;15.73;9.75;;;-5.90;99.90;;;;;;5070827;28;20861;-69
2022/12/12 08:40:23;;;;;;;14.98;9.90;;;-5.80;99.90;;;;;;5071104;28;20750;-70
2022/12/12 08:42:49;;;;;;;16.70;10.00;;;-5.90;99.90;;;;;;5070217;28;20410;-69
2022/12/12 08:45:14;;;;;;;16.57;10.97;;;-5.70;99.90;;;;;;5070834;28;20382;-69
2022/12/12 08:47:40;;;;;;;18.27;10.52;;;-5.60;99.90;;;;;;5070836;28;20387;-70
2022/12/12 08:50:06;;;;;;;16.27;10.88;;;-5.70;99.90;;;;;;5070971;28;20746;-69
2022/12/12 08:52:31;;;;;;;15.85;10.30;;;-5.70;99.90;;;;;;5070233;28;20896;-70
2022/12/12 08:54:57;;;;;;;16.20;11.50;;;-5.60;99.90;;;;;;5070592;28;20384;-69
2022/12/12 08:57:22;;;;;;;17.70;11.47;;;-5.50;99.90;;;;;;5070697;28;20392;-70
2022/12/12 08:59:48;;;;;;;17.80;11.53;;;-5.30;99.90;;;;;;5070602;28;20403;-70
2022/12/12 09:02:13;;;;;;;17.93;11.60;;;-5.50;99.90;;;;;;5070635;28;20400;-70
2022/12/12 09:04:39;;;;;;;19.13;11.60;;;-5.50;99.90;;;;;;5069922;28;20446;-70
2022/12/12 09:07:05;;;;;;;15.43;10.95;;;-5.30;99.90;;;;;;5070910;28;20376;-70
2022/12/12 09:09:31;;;;;;;17.55;11.30;;;-5.20;99.90;;;;;;5071247;28;20538;-69
2022/12/12 09:11:57;;;;;;;16.23;10.88;;;-5.30;99.90;;;;;;5070665;28;20441;-70
2022/12/12 09:14:22;;;;;;;16.95;10.60;;;-5.20;99.90;;;;;;5069685;28;20383;-68
2022/12/12 09:16:48;;;;;;;16.02;10.30;;;-4.90;99.90;;;;;;5070030;28;20893;-70
2022/12/12 09:19:14;;;;;;;17.17;10.80;;;-4.80;99.90;;;;;;5069951;28;20443;-71
2022/12/12 09:21:39;;;;;;;14.77;9.70;;;-4.60;99.90;;;;;;5070216;28;20415;-71
2022/12/12 09:24:05;;;;;;;14.95;11.00;;;-4.60;99.90;;;;;;5069357;28;20417;-70
2022/12/12 09:26:31;;;;;;;13.27;9.98;;;-4.60;99.90;;;;;;5070200;28;20882;-70
2022/12/12 09:28:56;;;;;;;18.20;10.30;;;-4.50;99.90;;;;;;5070006;28;20384;-70
2022/12/12 09:31:22;;;;;;;15.60;10.00;;;-4.60;99.90;;;;;;5070246;28;20386;-69
2022/12/12 09:33:47;;;;;;;15.60;10.30;;;-4.30;99.90;;;;;;5069533;28;20387;-70
2022/12/12 09:36:13;;;;;;;15.57;10.30;;;-4.30;99.90;;;;;;5052320;28;20907;-69
2022/12/12 09:38:40;;;;;;;15.13;11.15;;;-4.50;99.90;;;;;;5052166;28;20766;-70
2022/12/12 09:41:08;;;;;;;16.67;10.82;;;-4.60;99.90;;;;;;5070290;28;20875;-70
2022/12/12 09:43:42;;;;;;;15.38;11.10;;;-4.50;99.90;;;;;;5069368;28;20388;-70
2022/12/12 09:46:25;;;;;;;15.70;10.73;;;-4.00;99.90;;;;;;5070178;28;20379;-70
2022/12/12 09:48:50;;;;;;;13.65;9.43;;;-3.90;99.90;;;;;;5070353;28;20753;-70
2022/12/12 09:51:16;;;;;;;14.70;10.07;;;-3.80;99.90;;;;;;5070190;28;20383;-70
2022/12/12 09:53:45;;;;;;;14.53;10.30;;;-4.20;99.90;;;;;;5069464;28;20384;-70
2022/12/12 09:56:29;;;;;;;16.95;9.95;;;-4.20;99.90;;;;;;5069923;28;20758;-70
2022/12/12 09:59:05;;;;;;;14.10;9.40;;;-3.90;99.90;;;;;;5069934;28;21005;-69
2022/12/12 10:01:39;;;;;;;12.90;9.38;;;-3.60;99.90;;;;;;5070153;28;20401;-69
2022/12/12 10:04:19;;;;;;;14.55;9.65;;;-3.50;99.90;;;;;;5069275;28;20433;-69
2022/12/12 10:06:56;;;;;;;13.77;10.00;;;-3.50;99.90;;;;;;5070329;28;20376;-69
2022/12/12 10:09:37;;;;;;;12.63;9.93;;;-3.40;99.90;;;;;;5069871;28;20414;-69
2022/12/12 10:12:06;;;;;;;14.77;9.68;;;-3.30;99.90;;;;;;5070261;28;20471;-69
2022/12/12 10:14:39;;;;;;;14.90;10.30;;;-3.40;99.90;;;;;;5069385;28;20386;-69
2022/12/12 10:17:14;;;;;;;14.18;9.95;;;-3.40;99.90;;;;;;5070094;28;20380;-69
2022/12/12 10:20:05;;;;;;;13.82;10.00;;;-3.30;99.90;;;;;;5070135;28;20886;-69
2022/12/12 10:23:01;;;;;;;13.75;10.07;;;-3.40;99.90;;;;;;5069484;28;20388;-70
2022/12/12 10:25:42;;;;;;;13.20;10.15;;;-3.50;99.90;;;;;;5069969;28;20376;-69
2022/12/12 10:28:12;;;;;;;15.15;10.65;;;-3.10;99.90;;;;;;5070147;28;20454;-69
2022/12/12 10:30:54;;;;;;;15.13;10.23;;;-3.20;99.90;;;;;;5070032;28;20378;-70
2022/12/12 10:33:35;;;;;;;14.13;10.25;;;-3.10;99.90;;;;;;5069359;28;20387;-71
2022/12/12 10:36:20;;;;;;;13.70;9.80;;;-3.40;99.90;;;;;;5072428;28;20379;-68
2022/12/12 10:38:57;;;;;;;13.40;9.55;;;-3.30;99.90;;;;;;5073405;28;20464;-70
2022/12/12 10:41:32;;;;;;;13.10;9.63;;;-3.60;99.90;;;;;;5073352;28;20483;-68
2022/12/12 10:44:18;;;;;;;14.32;10.52;;;-3.40;99.90;;;;;;5072504;28;20375;-68
2022/12/12 10:47:11;;;;;;;16.60;10.98;;;-3.50;99.90;;;;;;5055400;28;20387;-69
2022/12/12 10:49:37;;;;;;;13.05;9.77;;;-3.20;99.90;;;;;;5070112;28;20467;-70
2022/12/12 10:52:10;;;;;;;16.02;10.70;;;-3.10;99.90;;;;;;5055186;28;20752;-70
2022/12/12 10:54:46;;;;;;;15.97;11.50;;;-3.20;99.90;;;;;;5072193;28;20372;-70
2022/12/12 10:57:24;;;;;;;14.90;11.00;;;-3.10;99.90;;;;;;5072975;28;20440;-69
2022/12/12 10:59:53;;;;;;;18.88;11.20;;;-3.20;99.90;;;;;;5072889;28;20407;-69
2022/12/12 11:02:27;;;;;;;15.25;10.50;;;-3.80;99.90;;;;;;5072933;28;20376;-70
2022/12/12 11:05:16;;;;;;;14.25;10.73;;;-3.70;99.90;;;;;;5072335;28;20896;-69
2022/12/12 11:08:07;;;;;;;17.75;11.70;;;-3.70;99.90;;;;;;5072709;28;20399;-69
2022/12/12 11:10:34;;;;;;;15.17;11.30;;;-3.60;99.90;;;;;;5056973;28;20465;-69
2022/12/12 11:13:09;;;;;;;18.10;11.65;;;-3.50;99.90;;;;;;5071769;28;20426;-69
2022/12/12 11:15:43;;;;;;;15.80;11.30;;;-3.30;99.90;;;;;;5072667;28;20394;-69
2022/12/12 11:18:18;;;;;;;15.27;10.63;;;-3.50;99.90;;;;;;5053745;28;20407;-69
2022/12/12 11:20:51;;;;;;;13.55;9.50;;;-3.30;99.90;;;;;;5072340;28;20388;-69
2022/12/12 11:23:23;;;;;;;13.00;9.53;;;-3.50;99.90;;;;;;5071916;28;20384;-69
2022/12/12 11:26:16;;;;;;;13.60;10.20;;;-3.50;99.90;;;;;;5072517;28;20380;-69
2022/12/12 11:28:45;;;;;;;16.20;10.23;;;-3.30;99.90;;;;;;5068970;28;20395;-69
2022/12/12 11:31:17;;;;;;;14.95;10.65;;;-3.30;99.90;;;;;;5054829;28;20395;-69
2022/12/12 11:33:53;;;;;;;19.25;11.32;;;-3.20;99.90;;;;;;5065985;28;20407;-69
2022/12/12 11:36:22;;;;;;;15.70;11.20;;;-3.60;99.90;;;;;;5072702;28;21139;-69
2022/12/12 11:38:55;;;;;;;15.77;11.50;;;-3.60;99.90;;;;;;5072165;28;20853;-69
2022/12/12 11:41:21;;;;;;;17.35;12.75;;;-3.80;99.90;;;;;;5072185;28;20412;-70
2022/12/12 11:43:47;;;;;;;16.60;11.63;;;-3.70;99.90;;;;;;5071456;28;20414;-70
2022/12/12 11:46:12;;;;;;;15.30;10.53;;;-3.90;99.90;;;;;;5071195;28;20865;-70
2022/12/12 11:48:53;;;;;;;16.33;12.10;;;-3.90;99.90;;;;;;5071680;28;20564;-70
2022/12/12 11:51:36;;;;;;;15.50;11.35;;;-3.70;99.90;;;;;;5072094;28;20735;-70
2022/12/12 11:54:06;;;;;;;14.50;11.15;;;-3.10;99.90;;;;;;5071324;28;20391;-70
2022/12/12 11:56:53;;;;;;;16.02;10.75;;;-3.10;99.90;;;;;;5071933;28;20711;-70
2022/12/12 11:59:40;;;;;;;13.73;10.60;;;-3.10;99.90;;;;;;5071852;28;20929;-70
2022/12/12 12:02:24;;;;;;;15.63;9.90;;;-3.10;99.90;;;;;;5071744;28;20429;-70
2022/12/12 12:05:14;;;;;;;12.73;10.00;;;-2.90;99.90;;;;;;5071260;28;20383;-70
2022/12/12 12:08:01;;;;;;;16.45;10.95;;;-3.00;99.90;;;;;;5071527;28;20391;-70
2022/12/12 12:11:06;;;;;;;15.65;10.63;;;-3.50;99.90;;;;;;5071530;28;20900;-69
2022/12/12 12:13:41;;;;;;;12.02;9.15;;;-3.10;99.90;;;;;;5053092;28;20426;-70
2022/12/12 12:16:18;;;;;;;13.75;10.35;;;-3.30;99.90;;;;;;5071494;28;20383;-69
2022/12/12 12:19:23;;;;;;;12.95;9.80;;;-3.30;99.90;;;;;;5071527;28;20442;-69
2022/12/12 12:22:07;;;;;;;12.75;9.85;;;-3.40;99.90;;;;;;5071296;28;20830;-69
2022/12/12 12:24:51;;;;;;;12.00;9.07;;;-3.10;99.90;;;;;;5070676;28;20483;-69
2022/12/12 12:27:16;;;;;;;15.57;11.40;;;-3.20;99.90;;;;;;5071238;28;20459;-70
2022/12/12 12:29:47;;;;;;;14.73;10.10;;;-2.90;99.90;;;;;;5071288;28;20486;-70
2022/12/12 12:32:25;;;;;;;13.60;10.10;;;-2.70;99.90;;;;;;5071070;28;20384;-70
2022/12/12 12:35:12;;;;;;;15.20;10.35;;;-3.00;99.90;;;;;;5070752;28;20893;-70
2022/12/12 12:37:55;;;;;;;13.48;10.57;;;-2.90;99.90;;;;;;5071307;28;20418;-70
2022/12/12 12:40:44;;;;;;;15.13;10.13;;;-2.80;99.90;;;;;;5071082;28;20475;-70
2022/12/12 12:43:47;;;;;;;14.10;10.50;;;-2.90;99.90;;;;;;5070407;28;20367;-70
2022/12/12 12:46:33;;;;;;;13.70;10.48;;;-2.60;99.90;;;;;;5071282;28;20398;-70
2022/12/12 12:49:07;;;;;;;15.18;9.90;;;-2.60;99.90;;;;;;5071404;28;20368;-70
2022/12/12 12:51:35;;;;;;;15.15;11.07;;;-2.80;99.90;;;;;;5071636;28;20408;-70
2022/12/12 12:54:31;;;;;;;15.60;12.10;;;-2.80;99.90;;;;;;5070878;28;20411;-70
2022/12/12 12:57:09;;;;;;;19.65;12.73;;;-3.00;99.90;;;;;;5066873;28;20739;-70
2022/12/12 12:59:42;;;;;;;17.00;12.27;;;-3.00;99.90;;;;;;5070537;28;21097;-69
2022/12/12 13:02:46;;;;;;;18.05;13.35;;;-2.80;99.90;;;;;;5071451;28;20903;-69
2022/12/12 13:05:18;;;;;;;15.93;11.50;;;-2.60;99.90;;;;;;5069360;28;20375;-70
2022/12/12 13:08:23;;;;;;;17.27;12.32;;;-2.80;99.90;;;;;;5063521;28;20392;-70
2022/12/12 13:11:00;;;;;;;15.88;11.50;;;-2.80;99.90;;;;;;5062995;28;20418;-66
2022/12/12 13:13:32;;;;;;;16.77;11.90;;;-2.80;99.90;;;;;;5069699;28;20387;-68